Time;durP1;ratioP1;P1;durP2;ratioP2;P2;SDS_P1;SDS_P2;PMS_P1;PMS_P2;Temp;Humidity;BMP_temperature;BMP_pressure;BME280_temperature;BME280_humidity;BME280_pressure;Samples;Min_cycle;Max_cycle;Signal;HPM_P1;HPM_P2
2023/10/13 00:01:58;;;;;;;42.60;21.83;;;;;;;14.00;100.00;95056.34;5095524;28;20373;-82
2023/10/13 00:04:24;;;;;;;67.32;26.40;;;;;;;14.10;100.00;95057.34;5096563;28;20107;-82
2023/10/13 00:09:40;;;;;;;47.78;23.95;;;;;;;14.31;100.00;95065.13;5096601;28;20082;-82
2023/10/13 00:12:13;;;;;;;52.65;25.50;;;;;;;14.41;100.00;95062.44;5094998;28;20036;-82
2023/10/13 00:14:41;;;;;;;57.88;25.52;;;;;;;14.15;100.00;95067.84;5095487;28;20048;-82
2023/10/13 00:17:24;;;;;;;76.30;35.60;;;;;;;14.06;100.00;95056.31;5096525;28;20405;-82
2023/10/13 00:22:35;;;;;;;127.53;53.65;;;;;;;13.76;100.00;95069.38;5124035;28;19962;-82
2023/10/13 00:25:03;;;;;;;122.28;52.30;;;;;;;13.84;100.00;95070.66;5128984;28;20032;-82
2023/10/13 00:27:36;;;;;;;103.88;48.10;;;;;;;13.99;100.00;95061.91;5078293;28;20032;-82
2023/10/13 00:35:42;;;;;;;67.07;31.65;;;;;;;14.20;100.00;95057.31;5099107;28;20065;-82
2023/10/13 00:38:27;;;;;;;52.30;27.48;;;;;;;14.09;100.00;95055.78;5099095;28;20024;-82
2023/10/13 00:41:15;;;;;;;71.97;30.48;;;;;;;13.79;100.00;95054.88;5100064;28;20039;-82
2023/10/13 00:46:33;;;;;;;65.70;29.65;;;;;;;13.71;100.00;95045.69;5099026;28;20161;-82
2023/10/13 00:49:01;;;;;;;72.53;30.75;;;;;;;13.99;100.00;95048.72;5099065;28;20068;-82
2023/10/13 00:51:34;;;;;;;64.18;31.75;;;;;;;13.84;100.00;95044.31;5098847;28;20114;-82
2023/10/13 00:54:11;;;;;;;70.85;30.25;;;;;;;13.79;100.00;95044.34;5099208;28;20035;-82
2023/10/13 00:56:43;;;;;;;62.47;28.88;;;;;;;13.94;100.00;95049.53;5097198;28;20425;-82
2023/10/13 00:59:10;;;;;;;56.35;23.83;;;;;;;13.98;100.00;95045.28;5097226;28;20040;-82
2023/10/13 01:01:36;;;;;;;35.72;15.75;;;;;;;14.11;100.00;95048.38;5079973;28;20051;-82
2023/10/13 01:06:46;;;;;;;36.72;15.50;;;;;;;14.37;100.00;95043.75;5096942;28;20089;-82
2023/10/13 01:09:16;;;;;;;35.00;16.60;;;;;;;14.42;100.00;95043.72;5097078;28;20039;-82
2023/10/13 01:11:48;;;;;;;41.72;15.88;;;;;;;14.40;100.00;95039.78;5096545;28;20036;-82
2023/10/13 01:16:58;;;;;;;35.30;13.52;;;;;;;14.46;100.00;95038.66;5096672;28;20085;-82
2023/10/13 01:19:27;;;;;;;39.08;14.98;;;;;;;14.53;100.00;95035.72;5097272;28;20055;-87
2023/10/13 01:22:04;;;;;;;36.97;17.30;;;;;;;14.54;100.00;95032.00;5096561;28;20032;-82
2023/10/13 01:24:35;;;;;;;38.58;15.63;;;;;;;14.61;100.00;95032.50;5097967;28;20127;-82
2023/10/13 01:27:17;;;;;;;49.05;19.67;;;;;;;14.54;100.00;95035.44;5096782;28;20044;-82
2023/10/13 01:29:53;;;;;;;44.80;19.08;;;;;;;14.64;100.00;95034.56;5096600;28;20055;-82
2023/10/13 01:32:45;;;;;;;35.53;16.92;;;;;;;14.62;100.00;95038.53;5095668;28;20067;-82
2023/10/13 01:35:10;;;;;;;46.30;18.33;;;;;;;14.80;100.00;95031.84;5097412;28;20347;-82
2023/10/13 01:37:36;;;;;;;38.55;17.58;;;;;;;14.76;100.00;95033.47;5097639;28;20127;-82
2023/10/13 01:40:01;;;;;;;47.75;17.58;;;;;;;14.72;100.00;95029.81;5097290;28;20035;-82
2023/10/13 01:42:30;;;;;;;35.05;13.32;;;;;;;14.68;100.00;95024.28;5094988;28;20036;-82
2023/10/13 01:44:58;;;;;;;25.63;10.40;;;;;;;14.36;100.00;95028.22;5096266;28;20432;-82
2023/10/13 01:47:44;;;;;;;28.83;11.20;;;;;;;14.45;100.00;95025.78;5096364;28;20032;-82
2023/10/13 01:50:21;;;;;;;26.40;13.32;;;;;;;14.08;100.00;95031.28;5097140;28;20028;-82
2023/10/13 01:52:47;;;;;;;31.80;14.82;;;;;;;13.69;100.00;95026.72;5097026;28;20036;-82
2023/10/13 01:55:14;;;;;;;46.60;18.17;;;;;;;13.53;100.00;95023.38;5095697;28;20107;-82
2023/10/13 02:00:25;;;;;;;26.70;13.23;;;;;;;13.85;100.00;95027.44;5095887;28;20475;-82
2023/10/13 02:02:51;;;;;;;50.75;20.38;;;;;;;13.35;100.00;95024.72;5096426;28;20026;-82
2023/10/13 02:05:17;;;;;;;58.80;26.75;;;;;;;13.38;100.00;95032.06;5095553;28;20119;-82
2023/10/13 02:07:45;;;;;;;54.60;25.38;;;;;;;13.39;100.00;95037.09;5095885;28;20044;-82
2023/10/13 02:10:31;;;;;;;63.45;27.23;;;;;;;13.59;100.00;95032.06;5095807;28;20387;-82
2023/10/13 02:12:56;;;;;;;56.97;24.55;;;;;;;13.75;100.00;95030.94;5096336;28;20031;-82
2023/10/13 02:15:22;;;;;;;59.75;27.92;;;;;;;13.69;100.00;95029.34;5095395;28;20031;-82
2023/10/13 02:17:51;;;;;;;66.68;30.58;;;;;;;13.63;100.00;95033.88;5096874;28;20100;-82
2023/10/13 02:23:02;;;;;;;66.38;29.52;;;;;;;13.47;100.00;95042.88;5095504;28;20507;-82
2023/10/13 02:25:42;;;;;;;64.85;30.20;;;;;;;13.71;100.00;95035.16;5096789;28;20040;-83
2023/10/13 02:31:11;;;;;;;60.72;26.88;;;;;;;14.03;100.00;95030.50;5094893;28;20357;-82
2023/10/13 02:33:44;;;;;;;62.28;27.58;;;;;;;13.86;100.00;95036.91;5096510;28;20060;-82
2023/10/13 02:39:13;;;;;;;56.67;26.63;;;;;;;14.28;100.00;95032.22;5096230;28;20081;-82
2023/10/13 02:41:40;;;;;;;58.97;26.70;;;;;;;14.04;100.00;95032.88;5095583;28;20080;-82
2023/10/13 02:44:06;;;;;;;54.53;25.95;;;;;;;13.97;100.00;95030.56;5095334;28;20040;-82
2023/10/13 02:46:35;;;;;;;55.70;24.42;;;;;;;13.85;100.00;95038.78;5095101;28;20475;-82
2023/10/13 02:49:19;;;;;;;54.58;24.00;;;;;;;13.73;100.00;95029.59;5095082;28;20035;-82
2023/10/13 02:51:45;;;;;;;50.75;24.60;;;;;;;13.68;100.00;95030.41;5095861;28;20067;-82
2023/10/13 02:57:15;;;;;;;47.40;20.80;;;;;;;14.09;100.00;95026.81;5096001;28;20047;-82
2023/10/13 02:59:46;;;;;;;50.67;23.05;;;;;;;14.08;100.00;95027.88;5095912;28;20035;-82
2023/10/13 03:02:38;;;;;;;49.78;22.20;;;;;;;14.18;100.00;95022.50;5094079;28;20024;-82
2023/10/13 03:05:09;;;;;;;52.45;24.88;;;;;;;13.79;100.00;95023.28;5094176;28;20061;-82
2023/10/13 03:07:55;;;;;;;67.03;27.65;;;;;;;13.43;100.00;95024.19;5095710;28;20038;-82
2023/10/13 03:10:21;;;;;;;62.42;26.60;;;;;;;13.37;100.00;95026.03;5094372;28;20352;-82
2023/10/13 03:12:48;;;;;;;65.05;26.10;;;;;;;13.55;100.00;95016.00;5077228;28;20437;-82
2023/10/13 03:15:17;;;;;;;60.30;24.52;;;;;;;13.67;100.00;95016.47;5095848;28;20070;-82
2023/10/13 03:17:46;;;;;;;51.28;23.83;;;;;;;13.62;100.00;95013.84;5094666;28;20464;-82
2023/10/13 03:20:23;;;;;;;45.35;22.17;;;;;;;13.64;100.00;95019.66;5094556;28;20040;-82
2023/10/13 03:22:52;;;;;;;61.85;25.30;;;;;;;13.48;100.00;95012.84;5093771;28;20063;-82
2023/10/13 03:25:42;;;;;;;60.95;27.25;;;;;;;13.23;100.00;95014.50;5094641;28;20496;-82
2023/10/13 03:30:55;;;;;;;61.70;25.77;;;;;;;13.35;100.00;95007.09;5093896;28;20089;-82
2023/10/13 03:33:26;;;;;;;61.83;28.83;;;;;;;13.22;100.00;95020.81;5095156;28;20028;-82
2023/10/13 03:35:59;;;;;;;70.35;28.05;;;;;;;13.17;100.00;95020.81;5095572;28;20399;-82
2023/10/13 03:38:27;;;;;;;55.60;27.45;;;;;;;13.23;100.00;95020.53;5094373;28;20027;-82
2023/10/13 03:46:21;;;;;;;61.55;27.02;;;;;;;13.45;100.00;95021.28;5094192;28;20039;-82
2023/10/13 03:49:06;;;;;;;64.78;27.02;;;;;;;13.51;100.00;95020.22;5095416;28;20130;-82
2023/10/13 03:51:31;;;;;;;61.47;26.88;;;;;;;13.57;100.00;95019.16;5093265;28;20024;-82
2023/10/13 03:53:58;;;;;;;60.00;28.73;;;;;;;13.34;100.00;95016.06;5095437;28;20050;-82
2023/10/13 03:56:28;;;;;;;64.68;29.33;;;;;;;13.12;100.00;95008.47;5094024;28;20035;-82
2023/10/13 03:59:01;;;;;;;70.85;29.92;;;;;;;13.11;100.00;95009.53;5095624;28;20028;-82
2023/10/13 04:01:31;;;;;;;62.28;27.58;;;;;;;13.12;100.00;95003.19;5095333;28;20462;-82
2023/10/13 04:04:34;;;;;;;62.97;26.73;;;;;;;13.09;100.00;94996.66;5097314;28;20455;-82
2023/10/13 04:15:14;;;;;;;49.28;21.98;;;;;;;13.54;100.00;94994.13;5099369;28;20032;-82
2023/10/13 04:17:22;;;;;;;48.50;21.55;;;;;;;13.23;100.00;94996.84;5100565;28;20453;-82
2023/10/13 04:36:45;;;;;;;51.85;25.27;;;;;;;12.95;100.00;94996.41;5098394;28;20031;-82
2023/10/13 04:39:15;;;;;;;52.97;23.20;;;;;;;12.97;100.00;95004.03;5080608;28;20657;-82
2023/10/13 04:44:52;;;;;;;55.58;25.08;;;;;;;13.15;100.00;95002.69;5096962;28;20035;-82
2023/10/13 04:47:18;;;;;;;52.45;24.42;;;;;;;13.24;100.00;95003.69;5096226;28;20143;-82
2023/10/13 04:52:15;;;;;;;58.95;25.17;;;;;;;13.06;100.00;94999.81;5093497;28;20032;-83
2023/10/13 04:54:54;;;;;;;51.17;26.02;;;;;;;13.15;100.00;95006.09;5097013;28;20125;-82
2023/10/13 05:44:32;;;;;;;43.08;20.85;;;;;;;13.71;100.00;95008.84;5097006;28;20471;-82
2023/10/13 05:46:20;;;;;;;43.80;21.30;;;;;;;13.77;100.00;95028.00;5096321;28;20157;-82
2023/10/13 05:48:42;;;;;;;48.00;19.40;;;;;;;13.38;100.00;95034.72;5093657;28;20028;-82
2023/10/13 06:30:56;;;;;;;30.33;15.98;;;;;;;15.16;100.00;95070.31;5095812;28;20074;-82
2023/10/13 06:33:23;;;;;;;28.73;15.05;;;;;;;15.20;100.00;95076.59;5095089;28;20034;-82
2023/10/13 06:35:56;;;;;;;40.05;18.27;;;;;;;15.10;100.00;95078.28;5078719;28;20127;-82
2023/10/13 06:38:21;;;;;;;41.28;18.20;;;;;;;15.20;100.00;95080.03;5107433;28;20342;-82
2023/10/13 06:40:48;;;;;;;40.85;19.85;;;;;;;14.80;100.00;95076.69;5118660;27;20055;-82
2023/10/13 06:43:17;;;;;;;40.97;20.13;;;;;;;14.66;100.00;95082.56;5090723;28;20054;-82
2023/10/13 06:45:50;;;;;;;44.08;20.02;;;;;;;15.11;100.00;95084.34;5095716;28;20039;-82
2023/10/13 06:48:18;;;;;;;40.20;19.83;;;;;;;15.44;100.00;95079.28;5094870;28;20032;-82
2023/10/13 06:51:17;;;;;;;39.80;18.30;;;;;;;15.37;100.00;95089.38;5094008;28;20033;-82
2023/10/13 06:53:46;;;;;;;43.50;18.10;;;;;;;15.45;100.00;95085.34;5093954;28;20036;-82
2023/10/13 06:56:16;;;;;;;48.03;19.85;;;;;;;15.58;100.00;95100.50;5094861;28;20037;-82
2023/10/13 06:58:44;;;;;;;38.38;19.92;;;;;;;15.61;100.00;95097.31;5094540;28;20360;-82
2023/10/13 07:01:14;;;;;;;41.25;19.73;;;;;;;15.54;100.00;95102.91;5095405;28;20127;-82
2023/10/13 07:06:25;;;;;;;54.85;20.98;;;;;;;15.63;100.00;95111.00;5087237;28;20039;-82
2023/10/13 07:08:53;;;;;;;38.55;19.67;;;;;;;15.83;100.00;95111.88;5095784;28;20040;-82
2023/10/13 07:11:33;;;;;;;36.53;18.40;;;;;;;15.99;100.00;95117.78;5095051;28;20039;-82
2023/10/13 07:14:16;;;;;;;40.80;19.10;;;;;;;16.09;100.00;95119.53;5083568;28;20086;-82
2023/10/13 07:19:52;;;;;;;40.50;17.67;;;;;;;16.18;100.00;95123.09;5078488;28;20146;-82
2023/10/13 07:22:39;;;;;;;40.80;18.60;;;;;;;16.13;100.00;95133.75;5094125;28;20032;-83
2023/10/13 07:25:06;;;;;;;47.08;19.48;;;;;;;16.28;100.00;95126.69;5095774;28;20031;-82
2023/10/13 07:30:19;;;;;;;36.30;15.98;;;;;;;16.73;100.00;95134.28;5094053;28;20034;-83
2023/10/13 07:32:45;;;;;;;30.70;15.88;;;;;;;17.00;100.00;95133.63;5077422;28;20031;-82
2023/10/13 07:35:15;;;;;;;36.38;16.35;;;;;;;16.78;100.00;95134.97;5093870;28;20027;-82
2023/10/13 07:38:00;;;;;;;32.60;16.05;;;;;;;16.84;100.00;95134.91;5094014;28;20019;-82
2023/10/13 07:40:51;;;;;;;30.33;16.55;;;;;;;17.07;100.00;95143.84;5120463;27;20016;-82
2023/10/13 07:43:39;;;;;;;41.13;18.05;;;;;;;17.14;100.00;95138.19;5084664;28;20031;-82
2023/10/13 07:46:09;;;;;;;31.40;17.10;;;;;;;16.91;100.00;95143.25;5094971;28;20110;-82
2023/10/13 07:48:37;;;;;;;37.40;18.27;;;;;;;16.47;100.00;95145.22;5077842;28;20058;-82
2023/10/13 07:51:04;;;;;;;33.35;17.05;;;;;;;16.68;100.00;95148.38;5093719;28;20044;-82
2023/10/13 07:53:40;;;;;;;36.53;18.77;;;;;;;17.12;100.00;95151.69;5093891;28;20028;-82
2023/10/13 07:56:30;;;;;;;37.92;17.42;;;;;;;17.20;100.00;95155.53;5093942;28;20039;-82
2023/10/13 07:59:01;;;;;;;37.25;18.15;;;;;;;17.14;100.00;95156.72;5094824;28;20039;-82
2023/10/13 08:01:45;;;;;;;32.95;15.65;;;;;;;17.57;100.00;95140.63;5093594;28;20063;-82
2023/10/13 08:04:11;;;;;;;33.72;15.80;;;;;;;17.56;100.00;95149.66;5074710;28;20032;-83
2023/10/13 08:06:38;;;;;;;33.25;16.50;;;;;;;17.45;100.00;95154.34;5081476;28;20031;-82
2023/10/13 08:09:07;;;;;;;32.88;17.10;;;;;;;17.69;100.00;95144.66;5093793;28;20468;-82
2023/10/13 08:11:54;;;;;;;36.17;17.08;;;;;;;17.78;100.00;95149.00;5092785;28;20032;-82
2023/10/13 08:14:23;;;;;;;29.65;15.88;;;;;;;18.17;100.00;95152.25;5084665;28;20031;-82
2023/10/13 08:16:59;;;;;;;35.55;18.80;;;;;;;18.12;100.00;95152.34;5093389;28;20440;-82
2023/10/13 08:22:35;;;;;;;43.97;20.67;;;;;;;18.22;100.00;95156.66;5094860;28;20036;-82
2023/10/13 08:30:42;;;;;;;49.22;22.80;;;;;;;18.55;100.00;95158.38;5095181;28;20036;-82
2023/10/13 08:33:17;;;;;;;49.88;20.85;;;;;;;18.70;100.00;95154.59;5093888;28;20089;-82
2023/10/13 08:36:27;;;;;;;47.58;22.40;;;;;;;18.59;100.00;95160.16;5094962;28;20039;-83
2023/10/13 08:38:29;;;;;;;45.92;21.67;;;;;;;19.05;100.00;95161.00;5092832;28;20044;-82
2023/10/13 08:43:50;;;;;;;38.40;19.80;;;;;;;19.44;100.00;95163.28;5125017;27;20040;-82
2023/10/13 08:46:30;;;;;;;43.60;20.17;;;;;;;19.35;100.00;95163.22;5085092;28;20032;-83
2023/10/13 08:49:18;;;;;;;42.03;21.95;;;;;;;19.32;100.00;95153.97;5094547;28;20123;-82
2023/10/13 08:51:44;;;;;;;40.38;21.48;;;;;;;19.67;100.00;95157.94;5087501;28;20081;-83
2023/10/13 08:54:33;;;;;;;49.35;22.08;;;;;;;19.42;100.00;95157.50;5097721;28;20067;-82
2023/10/13 08:57:05;;;;;;;46.22;21.38;;;;;;;19.46;100.00;95161.09;5096760;28;20083;-82
2023/10/13 08:59:38;;;;;;;50.25;25.17;;;;;;;19.40;100.00;95154.34;5096535;28;20028;-82
2023/10/13 09:02:59;;;;;;;47.55;21.15;;;;;;;19.91;100.00;95158.31;5097332;28;20476;-82
2023/10/13 09:05:41;;;;;;;48.60;20.90;;;;;;;19.84;100.00;95152.69;5123618;27;20027;-82
2023/10/13 09:07:55;;;;;;;42.17;19.33;;;;;;;19.99;100.00;95156.03;5097464;28;20036;-83
2023/10/13 09:11:05;;;;;;;47.60;21.25;;;;;;;19.73;100.00;95154.03;5079732;28;20028;-82
2023/10/13 09:13:43;;;;;;;39.88;20.60;;;;;;;20.19;100.00;95141.41;5097694;28;20371;-82
2023/10/13 09:19:01;;;;;;;48.65;22.08;;;;;;;20.58;100.00;95160.25;5096726;28;20035;-83
2023/10/13 09:21:43;;;;;;;41.60;21.00;;;;;;;20.86;100.00;95152.00;5095989;28;20043;-83
2023/10/13 09:27:04;;;;;;;49.72;25.75;;;;;;;20.94;100.00;95153.84;5083503;28;20415;-83
2023/10/13 09:29:38;;;;;;;48.50;25.65;;;;;;;20.76;100.00;95155.72;5096185;28;20149;-83
2023/10/13 09:32:03;;;;;;;43.35;18.85;;;;;;;21.63;100.00;95154.06;5095691;28;20062;-83
2023/10/13 09:34:50;;;;;;;44.28;21.40;;;;;;;21.08;100.00;95152.91;5096301;28;20385;-83
2023/10/13 09:37:27;;;;;;;49.58;21.85;;;;;;;21.19;100.00;95151.47;5094493;28;20451;-83
2023/10/13 09:39:54;;;;;;;44.08;22.80;;;;;;;21.51;100.00;95152.03;5097244;28;20330;-83
2023/10/13 09:45:04;;;;;;;47.50;23.08;;;;;;;21.58;100.00;95146.22;5085798;28;20093;-82
2023/10/13 09:47:36;;;;;;;41.53;22.10;;;;;;;22.08;100.00;95146.69;5095575;28;20052;-82
2023/10/13 09:50:13;;;;;;;52.08;22.90;;;;;;;21.29;100.00;95148.50;5096692;28;20028;-82
2023/10/13 09:52:58;;;;;;;49.05;23.35;;;;;;;21.02;100.00;95147.75;5090073;28;20036;-83
2023/10/13 09:55:47;;;;;;;45.75;23.27;;;;;;;21.08;100.00;95145.72;5094878;28;20073;-83
2023/10/13 09:58:36;;;;;;;49.40;25.35;;;;;;;21.50;100.00;95147.81;5087880;28;20039;-82
2023/10/13 10:01:31;;;;;;;51.50;23.08;;;;;;;21.70;100.00;95151.69;5125953;27;20445;-82
2023/10/13 10:04:08;;;;;;;53.30;23.10;;;;;;;21.13;100.00;95150.84;5127195;27;20032;-83
2023/10/13 10:06:53;;;;;;;48.22;25.65;;;;;;;21.46;100.00;95150.34;5095156;28;20114;-83
2023/10/13 10:09:22;;;;;;;54.35;23.92;;;;;;;21.51;100.00;95148.59;5124157;27;20035;-83
2023/10/13 10:12:14;;;;;;;47.30;22.33;;;;;;;21.95;100.00;95145.78;5094447;28;20417;-82
2023/10/13 10:15:13;;;;;;;46.05;24.05;;;;;;;21.44;100.00;95143.75;5093848;28;20718;-83
2023/10/13 10:17:43;;;;;;;60.33;27.52;;;;;;;21.24;100.00;95135.34;5091298;28;20059;-83
2023/10/13 10:20:14;;;;;;;62.58;27.85;;;;;;;21.64;100.00;95138.81;5094735;28;20413;-82
2023/10/13 10:22:52;;;;;;;50.72;24.58;;;;;;;21.12;100.00;95133.31;5092288;28;20073;-83
2023/10/13 10:25:29;;;;;;;59.30;26.70;;;;;;;20.89;100.00;95138.84;5087247;28;20040;-83
2023/10/13 10:28:15;;;;;;;65.43;26.67;;;;;;;20.74;100.00;95142.72;5094621;28;20042;-82
2023/10/13 10:30:42;;;;;;;49.83;25.58;;;;;;;;;;5125572;27;20332;-83
2023/10/13 10:33:28;;;;;;;49.42;23.85;;;;;;;20.71;100.00;95139.88;5096118;28;20035;-82
2023/10/13 10:36:01;;;;;;;50.40;25.52;;;;;;;20.04;100.00;95130.09;5095689;28;20118;-82
2023/10/13 10:41:00;;;;;;;51.35;26.85;;;;;;;19.68;100.00;95135.56;5095463;28;20286;-82
2023/10/13 10:43:48;;;;;;;49.70;25.02;;;;;;;19.73;100.00;95132.78;5094457;28;20131;-82
2023/10/13 10:46:18;;;;;;;54.40;26.25;;;;;;;19.80;100.00;95124.34;5127611;27;20040;-83
2023/10/13 10:48:43;;;;;;;56.53;25.63;;;;;;;19.69;100.00;95121.97;5094443;28;20116;-83
2023/10/13 10:51:22;;;;;;;59.13;27.08;;;;;;;19.53;100.00;95110.97;5095340;28;20115;-83
2023/10/13 10:53:50;;;;;;;46.55;23.23;;;;;;;19.58;100.00;95113.47;5108650;28;20062;-83
2023/10/13 10:56:20;;;;;;;47.10;21.23;;;;;;;19.84;100.00;95112.00;5094388;28;20074;-83
2023/10/13 10:59:05;;;;;;;56.08;23.88;;;;;;;20.61;100.00;95106.38;5094938;28;20318;-83
2023/10/13 11:01:38;;;;;;;46.55;22.30;;;;;;;21.04;100.00;95102.91;5124051;27;20031;-83
2023/10/13 11:04:08;;;;;;;41.25;18.95;;;;;;;21.17;100.00;95103.84;5078516;28;20024;-83
2023/10/13 11:06:41;;;;;;;40.75;20.00;;;;;;;20.91;100.00;95109.22;5077913;28;20024;-83
2023/10/13 11:12:14;;;;;;;41.08;21.13;;;;;;;;;;5020720;28;20056;-83
2023/10/13 11:14:41;;;;;;;41.10;19.95;;;;;;;21.43;100.00;95094.22;5078461;28;20042;-83
2023/10/13 11:17:24;;;;;;;42.88;19.15;;;;;;;22.14;100.00;95092.03;5093844;28;20055;-82
2023/10/13 11:19:49;;;;;;;44.47;19.47;;;;;;;22.76;100.00;95084.38;5093526;28;20043;-82
2023/10/13 11:22:42;;;;;;;39.28;18.38;;;;;;;22.92;100.00;95086.44;5093556;28;20032;-82
2023/10/13 11:25:11;;;;;;;40.05;18.95;;;;;;;22.62;100.00;95084.66;5093845;28;20420;-82
2023/10/13 11:30:19;;;;;;;42.20;19.65;;;;;;;22.86;100.00;95075.94;5093972;28;20040;-83
2023/10/13 11:33:06;;;;;;;49.15;19.98;;;;;;;22.78;100.00;95076.81;5093277;28;20384;-82
2023/10/13 11:49:05;;;;;;;38.17;18.60;;;;;;;23.25;100.00;95062.38;5093270;28;20449;-82
2023/10/13 11:51:38;;;;;;;31.33;16.95;;;;;;;23.67;100.00;95050.72;5094054;28;20397;-83
2023/10/13 11:54:03;;;;;;;31.02;16.45;;;;;;;23.99;97.68;95050.16;5085763;28;20465;-83
2023/10/13 11:56:29;;;;;;;37.05;18.40;;;;;;;23.33;100.00;95047.38;5093960;28;20123;-86
2023/10/13 12:04:51;;;;;;;36.70;17.20;;;;;;;22.51;100.00;95036.22;5084448;28;20043;-84
2023/10/13 12:07:19;;;;;;;37.72;17.77;;;;;;;22.33;100.00;95032.88;5094250;28;20064;-84
2023/10/13 12:12:21;;;;;;;36.28;19.13;;;;;;;22.86;100.00;95021.75;5085584;28;20076;-84
2023/10/13 12:14:52;;;;;;;43.15;19.33;;;;;;;22.80;100.00;95020.38;5095382;28;20459;-84
2023/10/13 12:17:24;;;;;;;37.83;18.67;;;;;;;22.77;100.00;95016.50;5080290;28;20031;-89
2023/10/13 12:20:18;;;;;;;49.65;18.58;;;;;;;22.90;100.00;95005.84;5095002;28;20425;-90
2023/10/13 12:22:51;;;;;;;;;;;;;;;22.76;100.00;95011.47;5106316;28;20430;-88
2023/10/13 12:25:44;;;;;;;37.38;19.00;;;;;;;22.42;100.00;95006.09;5078784;28;20305;-87
2023/10/13 12:28:22;;;;;;;40.70;18.25;;;;;;;22.11;100.00;95009.94;5097926;28;20089;-82
2023/10/13 12:31:08;;;;;;;38.65;19.27;;;;;;;22.01;100.00;95003.13;5097347;28;20055;-82
2023/10/13 12:33:37;;;;;;;46.72;19.50;;;;;;;22.06;100.00;95000.25;5092757;28;20075;-83
2023/10/13 12:52:15;;;;;;;31.50;17.35;;;;;;;22.64;100.00;94985.53;5096258;28;20040;-83
2023/10/13 12:57:44;;;;;;;32.45;17.88;;;;;;;22.24;100.00;94976.88;5091457;28;20349;-82
2023/10/13 13:00:33;;;;;;;38.47;17.40;;;;;;;22.33;100.00;94979.47;5098129;28;20494;-83
2023/10/13 13:02:58;;;;;;;36.47;16.55;;;;;;;23.25;100.00;94970.69;5127199;27;20333;-83
2023/10/13 13:05:28;;;;;;;33.45;17.58;;;;;;;23.01;100.00;94980.25;5096764;28;20119;-83
2023/10/13 13:07:54;;;;;;;38.00;18.50;;;;;;;22.33;100.00;94976.81;5096459;28;20433;-83
2023/10/13 13:10:21;;;;;;;31.00;15.75;;;;;;;22.29;100.00;94968.66;5095255;28;20038;-82
2023/10/13 13:12:46;;;;;;;31.08;16.73;;;;;;;21.66;100.00;94980.13;5096071;28;20089;-82
2023/10/13 13:15:12;;;;;;;33.40;15.43;;;;;;;21.85;100.00;94968.22;5097569;28;20036;-82
2023/10/13 13:17:56;;;;;;;31.42;15.27;;;;;;;21.63;100.00;94967.41;5079111;28;20031;-82
2023/10/13 13:20:29;;;;;;;31.73;14.93;;;;;;;22.13;100.00;94965.84;5085581;28;20093;-82
2023/10/13 13:22:55;;;;;;;29.40;15.17;;;;;;;22.33;100.00;94962.69;5095978;28;20032;-83
2023/10/13 13:25:29;;;;;;;33.88;15.23;;;;;;;22.61;100.00;94962.91;5095579;28;20261;-83
2023/10/13 13:30:58;;;;;;;25.60;13.57;;;;;;;23.20;100.00;94954.88;5098823;28;20049;-83
2023/10/13 13:33:25;;;;;;;24.33;13.45;;;;;;;23.35;100.00;94950.78;5098977;28;20040;-83
2023/10/13 13:35:55;;;;;;;27.75;13.23;;;;;;;23.24;100.00;94961.13;5098995;28;20032;-83
2023/10/13 13:38:27;;;;;;;28.80;14.90;;;;;;;23.47;100.00;94952.69;5097182;28;20089;-83
2023/10/13 13:40:54;;;;;;;30.15;14.93;;;;;;;22.27;100.00;94959.44;5097477;28;20448;-83
2023/10/13 13:43:40;;;;;;;39.50;16.80;;;;;;;22.07;100.00;94953.78;5097637;28;20031;-83
2023/10/13 13:46:27;;;;;;;27.38;13.95;;;;;;;22.72;100.00;94955.25;5098773;28;20043;-83
2023/10/13 13:52:21;;;;;;;31.85;13.68;;;;;;;23.18;100.00;94954.44;5097427;28;20581;-83
2023/10/13 13:57:30;;;;;;;28.13;12.57;;;;;;;23.28;100.00;94952.13;5097555;28;20054;-83
2023/10/13 13:59:57;;;;;;;32.03;13.90;;;;;;;23.72;100.00;94948.09;5097479;28;20036;-83
2023/10/13 14:05:27;;;;;;;27.63;14.80;;;;;;;24.17;97.92;94959.69;5097468;28;20521;-83
2023/10/13 14:07:55;;;;;;;26.95;14.75;;;;;;;23.61;100.00;94946.97;5098319;28;20114;-83
2023/10/13 14:13:48;;;;;;;35.90;16.73;;;;;;;22.30;100.00;94942.78;5055755;28;20106;-83
2023/10/13 14:16:18;;;;;;;38.35;16.85;;;;;;;22.24;100.00;94944.09;5040025;28;20047;-82
2023/10/13 14:18:47;;;;;;;26.27;14.75;;;;;;;22.83;100.00;94934.25;5077564;28;20056;-83
2023/10/13 14:24:00;;;;;;;27.02;14.93;;;;;;;22.68;100.00;94939.13;5097020;28;20042;-83
2023/10/13 14:26:26;;;;;;;30.95;15.98;;;;;;;23.10;100.00;94924.06;5098282;28;20035;-83
2023/10/13 14:29:00;;;;;;;33.05;15.35;;;;;;;23.04;100.00;94920.81;5096925;28;20092;-83
2023/10/13 14:31:26;;;;;;;35.50;14.15;;;;;;;23.06;100.00;94928.47;5097004;28;20032;-83
2023/10/13 14:34:10;;;;;;;36.83;13.55;;;;;;;23.34;100.00;94927.84;5079623;28;20036;-83
2023/10/13 14:36:36;;;;;;;39.85;14.98;;;;;;;22.96;100.00;94921.69;5097471;28;20059;-83
2023/10/13 14:39:02;;;;;;;23.52;13.82;;;;;;;22.38;100.00;94923.25;5097960;28;20436;-83
2023/10/13 14:41:29;;;;;;;24.08;13.27;;;;;;;22.56;100.00;94920.41;5095919;28;20130;-83
2023/10/13 14:43:56;;;;;;;28.73;14.68;;;;;;;23.13;100.00;94915.34;5097963;28;20028;-83
2023/10/13 14:46:25;;;;;;;31.35;14.40;;;;;;;23.06;100.00;94917.78;5079772;28;20028;-83
2023/10/13 14:48:54;;;;;;;23.98;13.65;;;;;;;23.28;100.00;94917.38;5095419;28;20039;-83
2023/10/13 14:51:19;;;;;;;33.83;13.23;;;;;;;22.98;100.00;94917.59;5096465;28;20040;-83
2023/10/13 14:54:07;;;;;;;33.65;16.58;;;;;;;22.25;100.00;94913.63;5096364;28;20047;-83
2023/10/13 14:56:32;;;;;;;35.55;16.85;;;;;;;22.14;100.00;94907.91;5097407;28;20028;-83
2023/10/13 14:58:58;;;;;;;37.45;16.63;;;;;;;22.32;100.00;94911.19;5096429;28;20081;-83
2023/10/13 15:01:26;;;;;;;34.15;16.17;;;;;;;22.24;100.00;94920.06;5097548;28;20224;-83
2023/10/13 15:03:55;;;;;;;30.88;16.02;;;;;;;22.58;100.00;94910.94;5096397;28;20085;-83
2023/10/13 15:06:25;;;;;;;26.23;15.23;;;;;;;22.68;100.00;94903.63;5096336;28;20429;-83
2023/10/13 15:08:53;;;;;;;33.15;13.90;;;;;;;23.30;100.00;94903.66;5079639;28;20028;-83
2023/10/13 15:11:19;;;;;;;24.48;11.93;;;;;;;23.38;100.00;94905.44;5095896;28;20058;-83
2023/10/13 15:14:04;;;;;;;27.92;14.80;;;;;;;23.63;100.00;94899.28;5097114;28;20028;-83
2023/10/13 15:16:29;;;;;;;26.33;15.13;;;;;;;24.36;95.88;94908.19;5096056;28;20039;-83
2023/10/13 15:18:55;;;;;;;31.25;14.40;;;;;;;23.90;100.00;94903.13;5095954;28;20047;-83
2023/10/13 15:24:14;;;;;;;21.85;11.63;;;;;;;24.40;95.91;94905.59;5083570;28;20028;-88
2023/10/13 15:27:02;;;;;;;28.25;14.00;;;;;;;24.11;97.02;94902.97;5075238;28;20342;-84
2023/10/13 15:29:35;;;;;;;25.52;12.82;;;;;;;23.59;100.00;94899.16;5108422;28;20055;-83
2023/10/13 15:34:27;;;;;;;24.13;12.40;;;;;;;23.37;100.00;94898.53;5109676;28;20020;-83
2023/10/13 15:36:55;;;;;;;21.13;12.25;;;;;;;22.82;100.00;94900.66;5076662;28;20035;-83
2023/10/13 15:39:39;;;;;;;21.65;12.65;;;;;;;22.07;100.00;94897.75;5075782;28;20032;-83
2023/10/13 15:42:05;;;;;;;28.60;12.82;;;;;;;21.84;100.00;94894.66;5109373;28;20048;-83
2023/10/13 15:44:34;;;;;;;22.90;12.38;;;;;;;21.44;100.00;94891.31;5092373;28;20102;-83
2023/10/13 15:46:59;;;;;;;25.75;14.07;;;;;;;21.29;100.00;94892.66;5075485;28;20040;-83
2023/10/13 15:49:27;;;;;;;29.35;14.02;;;;;;;20.77;100.00;94889.13;5109473;28;20127;-84
2023/10/13 15:51:56;;;;;;;30.75;16.05;;;;;;;20.62;100.00;94887.00;5108324;28;20111;-83
2023/10/13 15:54:22;;;;;;;26.17;13.73;;;;;;;20.56;100.00;94893.59;5108471;28;20119;-83
2023/10/13 15:59:34;;;;;;;26.42;13.07;;;;;;;20.53;100.00;94891.56;5104034;28;20538;-83
2023/10/13 16:02:00;;;;;;;20.92;12.07;;;;;;;20.23;100.00;94894.91;5079378;28;20033;-83